createdAt,value
2018-04-02T00:01:43.102Z,2.30
2018-04-02T00:04:10.569Z,2.30
2018-04-02T00:06:38.077Z,2.30
2018-04-02T00:09:05.526Z,2.20
2018-04-02T00:11:33.014Z,2.00
2018-04-02T00:14:00.507Z,2.00
2018-04-02T00:16:28.040Z,1.90
2018-04-02T00:18:56.228Z,1.90
2018-04-02T00:21:23.770Z,1.90
2018-04-02T00:23:51.253Z,2.00
2018-04-02T00:28:52.935Z,2.10
2018-04-02T00:31:21.160Z,2.00
2018-04-02T00:33:48.665Z,2.00
2018-04-02T00:36:16.158Z,2.00
2018-04-02T00:38:43.674Z,1.80
2018-04-02T00:41:11.155Z,1.70
2018-04-02T00:43:38.739Z,1.60
2018-04-02T00:46:06.190Z,1.60
2018-04-02T00:48:33.650Z,1.70
2018-04-02T00:51:01.138Z,1.80
2018-04-02T00:53:28.592Z,1.90
2018-04-02T00:55:56.063Z,1.90
2018-04-02T00:58:23.550Z,1.90
2018-04-02T01:00:51.021Z,1.70
2018-04-02T01:03:19.240Z,1.70
2018-04-02T01:05:46.713Z,1.70
2018-04-02T01:08:14.173Z,1.70
2018-04-02T01:10:41.630Z,1.60
2018-04-02T01:13:09.132Z,1.60
2018-04-02T01:15:37.403Z,1.50
2018-04-02T01:18:05.631Z,1.40
2018-04-02T01:20:33.091Z,1.40
2018-04-02T01:23:00.610Z,1.40
2018-04-02T01:25:28.018Z,1.40
2018-04-02T01:27:55.500Z,1.40
2018-04-02T01:30:23.726Z,1.30
2018-04-02T01:32:51.215Z,1.30
2018-04-02T01:35:18.695Z,1.20
2018-04-02T01:37:46.945Z,1.30
2018-04-02T01:40:14.399Z,1.30
2018-04-02T01:42:41.875Z,1.30
2018-04-02T01:45:09.317Z,1.30
2018-04-02T01:47:36.790Z,1.30
2018-04-02T01:50:04.463Z,1.20
2018-04-02T01:52:31.936Z,1.20
2018-04-02T01:54:59.410Z,1.20
2018-04-02T01:57:26.863Z,1.20
2018-04-02T01:59:54.390Z,1.20
2018-04-02T02:02:21.839Z,1.20
2018-04-02T02:04:49.318Z,1.20
2018-04-02T02:07:17.539Z,1.10
2018-04-02T02:09:45.026Z,1.10
2018-04-02T02:12:12.496Z,1.10
2018-04-02T02:14:39.988Z,1.10
2018-04-02T02:17:07.465Z,1.10
2018-04-02T02:19:34.926Z,1.10
2018-04-02T02:22:02.475Z,1.00
2018-04-02T02:24:29.927Z,1.00
2018-04-02T02:26:57.401Z,0.90
2018-04-02T02:29:24.855Z,0.90
2018-04-02T02:31:52.352Z,0.90
2018-04-02T02:34:20.624Z,0.70
2018-04-02T02:36:48.113Z,0.70
2018-04-02T02:39:16.333Z,0.60
2018-04-02T02:41:43.790Z,0.60
2018-04-02T02:44:11.286Z,0.50
2018-04-02T02:46:39.510Z,0.50
2018-04-02T02:49:06.975Z,0.50
2018-04-02T02:51:34.451Z,0.50
2018-04-02T02:54:01.907Z,0.50
2018-04-02T02:56:29.413Z,0.40
2018-04-02T02:58:56.911Z,0.40
2018-04-02T03:01:24.385Z,0.30
2018-04-02T03:03:51.867Z,0.30
2018-04-02T03:06:20.086Z,0.20
2018-04-02T03:08:47.580Z,0.20
2018-04-02T03:11:15.031Z,0.20
2018-04-02T03:13:42.509Z,0.10
2018-04-02T03:16:10.742Z,0.20
2018-04-02T03:18:38.234Z,0.20
2018-04-02T03:21:05.806Z,0.20
2018-04-02T03:23:33.259Z,0.20
2018-04-02T03:26:00.744Z,0.20
2018-04-02T03:28:28.986Z,0.10
2018-04-02T03:30:56.492Z,0.10
2018-04-02T03:33:23.970Z,0.10
2018-04-02T03:35:51.455Z,0.10
2018-04-02T03:38:18.998Z,0.10
2018-04-02T03:40:46.455Z,0.00
2018-04-02T03:43:13.933Z,0.10
2018-04-02T03:45:41.423Z,0.00
2018-04-02T03:48:09.767Z,-0.10
2018-04-02T03:50:38.726Z,-0.10
2018-04-02T03:53:06.210Z,-0.10
2018-04-02T03:55:33.684Z,-0.10
2018-04-02T03:58:01.179Z,-0.20
2018-04-02T04:00:28.718Z,-0.20
2018-04-02T04:02:57.071Z,-0.20
2018-04-02T04:05:24.542Z,-0.20
2018-04-02T04:07:52.036Z,-0.20
2018-04-02T04:10:19.517Z,-0.10
2018-04-02T04:12:46.988Z,-0.10
2018-04-02T04:15:14.538Z,0.00
2018-04-02T04:17:42.007Z,0.00
2018-04-02T04:20:09.470Z,0.10
2018-04-02T04:22:36.918Z,0.10
2018-04-02T04:25:04.418Z,0.10
2018-04-02T04:27:31.864Z,0.20
2018-04-02T04:30:00.119Z,0.20
2018-04-02T04:32:27.566Z,0.20
2018-04-02T04:34:55.026Z,0.20
2018-04-02T04:37:22.502Z,0.20
2018-04-02T04:39:49.958Z,0.20
2018-04-02T04:42:17.513Z,0.10
2018-04-02T04:44:44.971Z,0.00
2018-04-02T04:47:12.453Z,-0.10
2018-04-02T04:49:40.709Z,-0.30
2018-04-02T04:52:08.181Z,-0.30
2018-04-02T04:54:36.404Z,-0.40
2018-04-02T04:57:03.885Z,-0.40
2018-04-02T04:59:31.371Z,-0.50
2018-04-02T05:01:59.632Z,-0.50
2018-04-02T05:04:27.097Z,-0.50
2018-04-02T05:06:55.351Z,-0.60
2018-04-02T05:09:22.803Z,-0.60
2018-04-02T05:11:50.251Z,-0.60
2018-04-02T05:14:17.747Z,-0.70
2018-04-02T05:16:45.977Z,-0.80
2018-04-02T05:19:13.461Z,-0.80
2018-04-02T05:21:40.922Z,-0.80
2018-04-02T05:24:08.397Z,-0.80
2018-04-02T05:26:36.634Z,-0.80
2018-04-02T05:29:04.217Z,-0.80
2018-04-02T05:31:31.697Z,-0.70
2018-04-02T05:33:59.949Z,-0.60
2018-04-02T05:36:27.397Z,-0.60
2018-04-02T05:38:54.898Z,-0.50
2018-04-02T05:41:22.377Z,-0.50
2018-04-02T05:43:49.847Z,-0.50
2018-04-02T05:46:17.324Z,-0.60
2018-04-02T05:48:44.803Z,-0.60
2018-04-02T05:51:13.057Z,-0.60
2018-04-02T05:53:40.543Z,-0.60
2018-04-02T05:56:08.785Z,-0.40
2018-04-02T05:58:36.277Z,-0.50
2018-04-02T06:01:04.560Z,-0.20
2018-04-02T06:03:32.769Z,-0.10
2018-04-02T06:06:00.267Z,-0.10
2018-04-02T06:08:27.718Z,0.00
2018-04-02T06:10:55.214Z,0.10
2018-04-02T06:13:23.424Z,0.30
2018-04-02T06:15:50.894Z,0.30
2018-04-02T06:18:18.381Z,0.50
2018-04-02T06:20:45.857Z,0.80
2018-04-02T06:23:13.338Z,0.90
2018-04-02T06:25:40.847Z,1.00
2018-04-02T06:28:08.326Z,1.00
2018-04-02T06:30:35.874Z,1.00
2018-04-02T06:33:03.330Z,1.00
2018-04-02T06:35:30.801Z,1.20
2018-04-02T06:37:59.053Z,1.30
2018-04-02T06:40:26.623Z,1.30
2018-04-02T06:42:54.100Z,1.40
2018-04-02T06:45:22.327Z,1.60
2018-04-02T06:47:49.834Z,1.60
2018-04-02T06:50:18.076Z,1.80
2018-04-02T06:52:45.544Z,1.80
2018-04-02T06:55:13.805Z,2.00
2018-04-02T06:57:41.265Z,1.90
2018-04-02T07:00:08.750Z,2.00
2018-04-02T07:02:36.357Z,2.10
2018-04-02T07:05:04.554Z,2.20
2018-04-02T07:07:32.035Z,2.20
2018-04-02T07:09:59.510Z,2.70
2018-04-02T07:12:27.754Z,3.30
2018-04-02T07:14:55.240Z,3.30
2018-04-02T07:17:23.511Z,3.80
2018-04-02T07:19:51.759Z,3.80
2018-04-02T07:22:20.364Z,3.90
2018-04-02T07:24:48.970Z,4.00
2018-04-02T07:27:16.428Z,4.00
2018-04-02T07:29:44.679Z,4.00
2018-04-02T07:32:12.126Z,4.00
2018-04-02T07:34:39.692Z,3.90
2018-04-02T07:37:07.164Z,3.90
2018-04-02T07:39:35.421Z,3.90
2018-04-02T07:42:02.894Z,3.90
2018-04-02T07:44:31.148Z,4.30
2018-04-02T07:46:59.391Z,4.40
2018-04-02T07:49:26.866Z,4.40
2018-04-02T07:51:54.340Z,4.50
2018-04-02T07:54:21.786Z,4.80
2018-04-02T07:56:49.369Z,5.00
2018-04-02T07:59:17.617Z,4.90
2018-04-02T08:01:45.199Z,4.90
2018-04-02T08:04:12.660Z,4.90
2018-04-02T08:06:40.132Z,5.00
2018-04-02T08:09:08.345Z,5.10
2018-04-02T08:11:35.837Z,5.10
2018-04-02T08:14:03.316Z,5.10
2018-04-02T08:16:31.547Z,5.20
2018-04-02T08:19:00.157Z,5.40
2018-04-02T08:21:27.601Z,5.40
2018-04-02T08:23:55.080Z,5.70
2018-04-02T08:26:22.544Z,5.80
2018-04-02T08:28:50.058Z,6.00
2018-04-02T08:31:17.519Z,6.20
2018-04-02T08:33:45.029Z,6.50
2018-04-02T08:36:13.657Z,6.70
2018-04-02T08:38:41.195Z,6.70
2018-04-02T08:41:09.423Z,7.20
2018-04-02T08:43:36.874Z,7.20
2018-04-02T08:46:04.392Z,7.30
2018-04-02T08:48:31.882Z,7.50
2018-04-02T08:50:59.377Z,7.80
2018-04-02T08:53:27.603Z,8.20
2018-04-02T08:55:55.101Z,8.10
2018-04-02T08:58:22.557Z,8.30
2018-04-02T09:00:50.035Z,8.50
2018-04-02T09:03:17.504Z,8.50
2018-04-02T09:05:45.014Z,8.60
2018-04-02T09:08:12.599Z,8.70
2018-04-02T09:10:40.854Z,8.60
2018-04-02T09:13:08.355Z,8.60
2018-04-02T09:15:35.876Z,8.40
2018-04-02T09:18:03.367Z,8.00
2018-04-02T09:20:31.601Z,7.70
2018-04-02T09:22:59.103Z,7.70
2018-04-02T09:25:27.326Z,7.60
2018-04-02T09:27:54.860Z,7.60
2018-04-02T09:30:22.318Z,7.60
2018-04-02T09:32:49.786Z,7.80
2018-04-02T09:35:18.400Z,8.20
2018-04-02T09:37:45.866Z,8.20
2018-04-02T09:40:13.366Z,8.40
2018-04-02T09:42:40.839Z,8.60
2018-04-02T09:45:08.317Z,8.90
2018-04-02T09:47:35.850Z,9.00
2018-04-02T09:50:03.342Z,9.10
2018-04-02T09:52:30.815Z,9.20
2018-04-02T09:54:58.309Z,9.20
2018-04-02T09:57:25.792Z,9.20
2018-04-02T09:59:53.295Z,9.20
2018-04-02T10:02:21.532Z,9.40
2018-04-02T10:04:49.065Z,9.40
2018-04-02T10:07:17.331Z,9.50
2018-04-02T10:09:45.046Z,9.50
2018-04-02T10:12:12.569Z,9.50
2018-04-02T10:14:40.098Z,9.50
2018-04-02T10:17:08.365Z,9.30
2018-04-02T10:19:36.641Z,9.20
2018-04-02T10:22:04.211Z,9.20
2018-04-02T10:24:32.814Z,9.20
2018-04-02T10:27:02.853Z,9.10
2018-04-02T10:29:30.306Z,9.30
2018-04-02T10:31:58.591Z,9.50
2018-04-02T10:34:26.093Z,9.50
2018-04-02T10:36:54.354Z,9.70
2018-04-02T10:39:21.941Z,9.70
2018-04-02T10:41:50.174Z,9.80
2018-04-02T10:44:17.665Z,9.80
2018-04-02T10:46:45.939Z,10.10
2018-04-02T10:49:14.602Z,10.40
2018-04-02T10:51:42.082Z,10.40
2018-04-02T10:54:10.380Z,10.90
2018-04-02T10:56:38.621Z,10.90
2018-04-02T10:59:07.304Z,10.90
2018-04-02T11:01:34.772Z,10.90
2018-04-02T11:04:02.265Z,10.90
2018-04-02T11:06:29.740Z,11.10
2018-04-02T11:08:57.269Z,11.40
2018-04-02T11:11:24.758Z,11.80
2018-04-02T11:13:52.409Z,12.10
2018-04-02T11:16:19.895Z,12.20
2018-04-02T11:18:47.388Z,12.20
2018-04-02T11:21:15.659Z,12.30
2018-04-02T11:23:43.163Z,12.30
2018-04-02T11:26:10.637Z,12.60
2018-04-02T11:28:38.150Z,12.70
2018-04-02T11:31:05.650Z,12.90
2018-04-02T11:33:33.176Z,12.90
2018-04-02T11:36:01.447Z,13.10
2018-04-02T11:38:29.790Z,13.40
2018-04-02T11:40:57.304Z,13.40
2018-04-02T11:43:24.775Z,13.40
2018-04-02T11:45:52.298Z,13.40
2018-04-02T11:48:20.573Z,13.50
2018-04-02T11:50:48.062Z,13.50
2018-04-02T11:53:15.528Z,13.70
2018-04-02T11:55:43.040Z,13.80
2018-04-02T11:58:11.281Z,14.30
2018-04-02T12:00:38.782Z,14.30
2018-04-02T12:03:07.025Z,14.70
2018-04-02T12:05:34.497Z,14.70
2018-04-02T12:08:02.881Z,14.90
2018-04-02T12:10:30.371Z,14.90
2018-04-02T12:12:57.886Z,14.80
2018-04-02T12:15:25.378Z,14.60
2018-04-02T12:17:53.643Z,15.10
2018-04-02T12:20:22.621Z,15.50
2018-04-02T12:22:50.108Z,15.50
2018-04-02T12:25:17.619Z,16.40
2018-04-02T12:27:45.164Z,19.20
2018-04-02T12:30:12.631Z,22.60
2018-04-02T12:32:40.118Z,24.90
2018-04-02T12:35:08.375Z,27.40
2018-04-02T12:37:35.873Z,27.30
2018-04-02T12:40:03.338Z,28.50
2018-04-02T12:42:30.836Z,29.40
2018-04-02T12:44:58.307Z,29.50
2018-04-02T12:47:25.774Z,29.50
2018-04-02T12:49:54.764Z,29.20
2018-04-02T12:52:22.233Z,29.20
2018-04-02T12:54:49.713Z,28.20
2018-04-02T12:57:18.367Z,28.80
2018-04-02T12:59:45.844Z,28.70
2018-04-02T13:02:13.320Z,28.20
2018-04-02T13:04:41.681Z,29.30
2018-04-02T13:07:09.080Z,29.30
2018-04-02T13:09:36.592Z,29.40
2018-04-02T13:12:04.828Z,28.30
2018-04-02T13:14:32.283Z,28.30
2018-04-02T13:17:00.908Z,26.60
2018-04-02T13:19:29.201Z,25.60
2018-04-02T13:21:56.681Z,25.60
2018-04-02T13:24:24.148Z,26.30
2018-04-02T13:26:51.656Z,27.70
2018-04-02T13:29:19.881Z,28.80
2018-04-02T13:31:47.374Z,28.80
2018-04-02T13:34:14.835Z,29.70
2018-04-02T13:36:42.348Z,30.10
2018-04-02T13:39:09.817Z,28.50
2018-04-02T13:41:37.290Z,28.10
2018-04-02T13:44:04.788Z,28.50
2018-04-02T13:46:33.061Z,26.70
2018-04-02T13:49:01.313Z,25.50
2018-04-02T13:51:28.863Z,25.40
2018-04-02T13:53:56.281Z,24.50
2018-04-02T13:56:23.754Z,24.30
2018-04-02T13:58:51.246Z,24.20
2018-04-02T14:01:18.699Z,25.10
2018-04-02T14:03:46.179Z,26.50
2018-04-02T14:06:14.403Z,28.90
2018-04-02T14:08:41.906Z,28.80
2018-04-02T14:11:09.369Z,29.20
2018-04-02T14:13:36.825Z,29.30
2018-04-02T14:16:05.085Z,28.80
2018-04-02T14:18:32.534Z,28.70
2018-04-02T14:21:00.027Z,28.70
2018-04-02T14:23:28.254Z,28.80
2018-04-02T14:25:55.774Z,28.80
2018-04-02T14:28:23.233Z,28.70
2018-04-02T14:30:50.756Z,28.50
2018-04-02T14:33:18.219Z,28.20
2018-04-02T14:35:45.706Z,28.20
2018-04-02T14:38:13.155Z,28.60
2018-04-02T14:40:41.414Z,29.00
2018-04-02T14:43:09.640Z,29.20
2018-04-02T14:45:37.131Z,29.10
2018-04-02T14:48:04.577Z,29.10
2018-04-02T14:50:32.031Z,28.80
2018-04-02T14:52:59.652Z,28.80
2018-04-02T14:55:27.126Z,27.70
2018-04-02T14:57:54.625Z,25.50
2018-04-02T15:00:22.114Z,25.30
2018-04-02T15:02:49.611Z,25.60
2018-04-02T15:05:17.090Z,26.30
2018-04-02T15:07:44.591Z,27.30
2018-04-02T15:10:12.830Z,27.70
2018-04-02T15:12:40.326Z,27.60
2018-04-02T15:15:08.599Z,26.30
2018-04-02T15:17:36.865Z,25.50
2018-04-02T15:20:05.077Z,24.70
2018-04-02T15:22:32.583Z,24.70
2018-04-02T15:25:00.097Z,23.90
2018-04-02T15:27:27.552Z,23.90
2018-04-02T15:29:55.032Z,23.40
2018-04-02T15:32:23.391Z,23.10
2018-04-02T15:34:50.910Z,22.60
2018-04-02T15:37:19.152Z,21.60
2018-04-02T15:39:46.636Z,21.60
2018-04-02T15:42:14.952Z,21.20
2018-04-02T15:44:42.450Z,21.10
2018-04-02T15:47:09.914Z,20.60
2018-04-02T15:49:37.424Z,19.50
2018-04-02T15:52:04.902Z,18.80
2018-04-02T15:54:32.362Z,18.30
2018-04-02T15:56:59.847Z,17.70
2018-04-02T15:59:27.298Z,17.30
2018-04-02T16:01:58.449Z,17.00
2018-04-02T16:04:26.099Z,16.50
2018-04-02T16:06:53.591Z,16.30
2018-04-02T16:09:21.809Z,15.90
2018-04-02T16:11:49.320Z,15.80
2018-04-02T16:14:17.571Z,15.90
2018-04-02T16:16:45.037Z,15.90
2018-04-02T16:19:12.574Z,16.00
2018-04-02T16:21:40.076Z,16.20
2018-04-02T16:24:07.546Z,16.30
2018-04-02T16:26:35.781Z,16.30
2018-04-02T16:29:03.287Z,16.20
2018-04-02T16:31:30.803Z,16.10
2018-04-02T16:33:59.442Z,15.40
2018-04-02T16:36:26.923Z,15.40
2018-04-02T16:38:54.420Z,15.10
2018-04-02T16:41:22.693Z,14.80
2018-04-02T16:43:50.169Z,14.80
2018-04-02T16:46:18.448Z,14.70
2018-04-02T16:48:45.919Z,14.60
2018-04-02T16:51:13.404Z,14.60
2018-04-02T16:53:40.872Z,14.50
2018-04-02T16:56:08.369Z,14.50
2018-04-02T16:58:36.606Z,14.30
2018-04-02T17:01:04.111Z,14.20
2018-04-02T17:03:32.330Z,14.00
2018-04-02T17:05:59.826Z,14.00
2018-04-02T17:08:27.323Z,13.90
2018-04-02T17:10:54.832Z,13.90
2018-04-02T17:13:22.310Z,13.80
2018-04-02T17:15:50.580Z,13.70
2018-04-02T17:18:18.864Z,13.60
2018-04-02T17:20:47.155Z,13.60
2018-04-02T17:23:14.654Z,13.50
2018-04-02T17:25:42.175Z,13.60
2018-04-02T17:28:09.687Z,13.50
2018-04-02T17:30:37.251Z,13.50
2018-04-02T17:33:06.266Z,13.40
2018-04-02T17:35:34.550Z,13.40
2018-04-02T17:38:02.125Z,13.30
2018-04-02T17:40:29.595Z,13.30
2018-04-02T17:42:57.085Z,13.30
2018-04-02T17:45:24.597Z,13.20
2018-04-02T17:47:52.113Z,13.20
2018-04-02T17:50:19.603Z,13.20
2018-04-02T17:52:47.118Z,13.10
2018-04-02T17:55:14.644Z,13.10
2018-04-02T17:57:42.131Z,13.00
2018-04-02T18:00:09.688Z,13.00
2018-04-02T18:02:37.209Z,13.00
2018-04-02T18:05:04.737Z,12.90
2018-04-02T18:07:33.377Z,12.90
2018-04-02T18:10:00.889Z,12.80
2018-04-02T18:12:29.185Z,12.80
2018-04-02T18:14:56.702Z,12.80
2018-04-02T18:17:24.289Z,12.80
2018-04-02T18:19:52.682Z,12.80
2018-04-02T18:22:20.191Z,12.80
2018-04-02T18:24:47.817Z,12.80
2018-04-02T18:27:15.323Z,12.70
2018-04-02T18:29:42.841Z,12.60
2018-04-02T18:32:10.365Z,12.50
2018-04-02T18:34:38.636Z,12.40
2018-04-02T18:37:06.142Z,12.40
2018-04-02T18:39:33.622Z,12.40
2018-04-02T18:42:01.385Z,12.40
2018-04-02T18:44:29.017Z,12.30
2018-04-02T18:46:56.521Z,12.30
2018-04-02T18:49:24.026Z,12.30
2018-04-02T18:51:51.629Z,12.30
2018-04-02T18:54:19.135Z,12.20
2018-04-02T18:56:46.612Z,12.20
2018-04-02T18:59:14.163Z,12.10
2018-04-02T19:01:41.642Z,12.00
2018-04-02T19:04:09.173Z,12.00
2018-04-02T19:06:36.686Z,11.90
2018-04-02T19:09:04.265Z,12.00
2018-04-02T19:11:32.594Z,12.20
2018-04-02T19:14:00.119Z,12.20
2018-04-02T19:16:27.675Z,12.10
2018-04-02T19:18:55.151Z,12.00
2018-04-02T19:21:24.251Z,11.70
2018-04-02T19:23:51.729Z,11.70
2018-04-02T19:26:19.270Z,11.60
2018-04-02T19:28:46.756Z,11.50
2018-04-02T19:31:14.284Z,11.30
2018-04-02T19:33:41.760Z,11.20
2018-04-02T19:36:09.250Z,11.10
2018-04-02T19:38:36.859Z,10.90
2018-04-02T19:41:04.414Z,10.90
2018-04-02T19:43:31.887Z,10.80
2018-04-02T19:45:59.365Z,10.70
2018-04-02T19:48:26.865Z,10.60
2018-04-02T19:50:55.097Z,10.60
2018-04-02T19:53:22.670Z,10.50
2018-04-02T19:55:50.159Z,10.60
2018-04-02T19:58:18.807Z,10.60
2018-04-02T20:00:46.327Z,10.60
2018-04-02T20:03:13.827Z,10.60
2018-04-02T20:05:41.407Z,10.60
2018-04-02T20:08:10.042Z,10.70
2018-04-02T20:10:37.520Z,10.70
2018-04-02T20:13:05.050Z,10.80
2018-04-02T20:15:32.539Z,10.80
2018-04-02T20:18:00.074Z,10.90
2018-04-02T20:20:27.545Z,10.80
2018-04-02T20:22:55.062Z,10.80
2018-04-02T20:25:22.582Z,10.80
2018-04-02T20:27:50.087Z,10.80
2018-04-02T20:30:18.079Z,10.80
2018-04-02T20:32:45.759Z,10.90
2018-04-02T20:35:13.287Z,10.90
2018-04-02T20:37:40.828Z,11.00
2018-04-02T20:40:09.086Z,10.70
2018-04-02T20:42:37.425Z,10.60
2018-04-02T20:45:04.905Z,10.60
2018-04-02T20:47:32.436Z,10.50
2018-04-02T20:49:59.894Z,10.40
2018-04-02T20:52:27.402Z,10.30
2018-04-02T20:54:55.670Z,10.30
2018-04-02T20:57:23.172Z,10.30
2018-04-02T20:59:50.688Z,10.20
2018-04-02T21:02:18.962Z,10.00
2018-04-02T21:04:46.453Z,10.00
2018-04-02T21:07:13.962Z,10.00
2018-04-02T21:09:41.422Z,9.90
2018-04-02T21:12:08.967Z,9.80
2018-04-02T21:14:36.428Z,9.70
2018-04-02T21:17:03.937Z,9.60
2018-04-02T21:19:31.443Z,9.50
2018-04-02T21:21:58.904Z,9.40
2018-04-02T21:24:26.377Z,9.30
2018-04-02T21:26:53.859Z,9.20
2018-04-02T21:29:22.115Z,9.10
2018-04-02T21:31:49.592Z,9.10
2018-04-02T21:34:17.841Z,9.00
2018-04-02T21:36:46.810Z,9.00
2018-04-02T21:39:14.325Z,9.00
2018-04-02T21:41:42.626Z,9.00
2018-04-02T21:44:10.141Z,9.00
2018-04-02T21:46:37.604Z,8.80
2018-04-02T21:49:05.863Z,8.90
2018-04-02T21:51:33.344Z,8.90
2018-04-02T21:54:01.588Z,9.00
2018-04-02T21:56:29.138Z,9.00
2018-04-02T21:58:56.623Z,9.00
2018-04-02T22:01:24.905Z,9.00
2018-04-02T22:03:52.412Z,9.00
2018-04-02T22:09:24.503Z,9.30
2018-04-02T22:11:51.987Z,9.20
2018-04-02T22:14:19.446Z,9.20
2018-04-02T22:16:46.898Z,9.30
2018-04-02T22:19:14.377Z,9.50
2018-04-02T22:21:42.661Z,9.70
2018-04-02T22:24:10.898Z,9.70
2018-04-02T22:26:38.368Z,9.70
2018-04-02T22:29:05.846Z,10.00
2018-04-02T22:31:34.095Z,10.50
2018-04-02T22:34:01.598Z,10.50
2018-04-02T22:36:29.843Z,9.90
2018-04-02T22:38:57.343Z,9.90
2018-04-02T22:41:24.818Z,9.80
2018-04-02T22:43:52.299Z,9.80
2018-04-02T22:46:19.805Z,9.80
2018-04-02T22:48:47.309Z,10.00
2018-04-02T22:51:14.817Z,10.30
2018-04-02T22:53:43.091Z,10.70
2018-04-02T22:56:11.309Z,10.60
2018-04-02T22:58:38.785Z,10.60
2018-04-02T23:01:06.354Z,10.50
2018-04-02T23:03:33.842Z,10.30
2018-04-02T23:06:02.131Z,10.00
2018-04-02T23:08:29.617Z,10.00
2018-04-02T23:10:57.100Z,9.80
2018-04-02T23:13:24.606Z,9.70
2018-04-02T23:15:52.084Z,9.50
2018-04-02T23:18:19.594Z,9.40
2018-04-02T23:20:47.038Z,9.30
2018-04-02T23:23:14.526Z,9.30
2018-04-02T23:25:42.758Z,9.30
2018-04-02T23:28:10.295Z,9.30
2018-04-02T23:30:37.770Z,9.30
2018-04-02T23:33:05.272Z,9.30
2018-04-02T23:35:33.499Z,9.40
2018-04-02T23:38:02.284Z,9.40
2018-04-02T23:40:29.742Z,9.40
2018-04-02T23:42:57.190Z,9.40
2018-04-02T23:45:24.679Z,9.40
2018-04-02T23:47:52.183Z,9.40
2018-04-02T23:50:19.667Z,9.30
2018-04-02T23:52:47.125Z,9.20
2018-04-02T23:55:14.653Z,9.20
2018-04-02T23:57:42.875Z,9.30
